AUGUSTUS,02 2015

 

METAR SMJP 020200Z 05006KT 9999 FEW020CB 26/24 Q1013 NOSIG=